Edi Upper Vineyard, Victoria

1:05 PM EST on August 31, 2014 (GMT +1000)
Albury | Change Station
CLOSE
Current Station
Airport
Location: Albury,
Elevation: 541 ft
Nearby Weather Stations

Elev 541 ft 36.07 °S, 146.96 °E | Updated 5 minutes ago

Clear
Clear
64 °F
Feels Like 64 °F
N
5
Wind Variable Wind from ENE

Today
High -- | Low -- °F
--% Chance of Precip.
Yesterday
High -- | Low -- °F
Precip. -- in
6:36 AM 5:52 PM
Waxing Crescent, 27% visible
Pressure 30.09 in
Visibility 6.2 miles
Clouds
Dew Point 48 °F
Humidity 56%
Rainfall 0.00 in
Snow Depth Not available.
UV Not available.
Pollen Not available.
Air Quality Not available.
Flu Activity Not available.
METAR YMAY 310300Z AUTO 07004KT 9999 // NCD 18/09 Q1019

More Conditions Fewer Conditions

Pressure 30.09 in
Visibility 6.2 miles
Clouds
Dew Point 48 °F
Humidity 56%
Rainfall 0.00 in
Snow Depth Not available.
UV Not available.
Pollen Not available.
Air Quality Not available.
Flu Activity Not available.
METAR YMAY 310300Z AUTO 07004KT 9999 // NCD 18/09 Q1019

More Conditions Fewer Conditions

10-Day Weather Forecast

Almanac

Astronomy

Aug. 31, 2014 Rise Set
Actual Time 6:36 AM EST 5:52 PM EST
Civil Twilight 6:10 AM EST 6:18 PM EST
Nautical Twilight 5:40 AM EST 6:48 PM EST
Astronomical Twilight 5:10 AM EST 7:18 PM EST
Moon 9:23 AM EST 11:10 PM EST
Length of Visible Light 12h 07m
Length of Day
11h 15m
Tomorrow will be 2m 11s longer.
Waxing Crescent, 27% of the Moon is Illuminated
Aug 30
Waxing Crescent
Sep 2
First Quarter
Sep 8
Full
Sep 15
Last Quarter
Sep 24
New

Yesterday's Extremes

Country Highs Country Lows

Community

WunderPhotos

Upload Photos

1,748,754 photos uploaded!

Nearby

Snow Depth

Not available.

Earthquake Activity

City Distance Mag. Time & Date
No recent earthquake activity has been reported nearby.
Minimum magnitude displayed is 2.5.

Coastal Water Temperatures

Place Temperature
No Stations Reporting

Nearby Weather Stations